sensor_id;sensor_type;location;lat;lon;timestamp;P1;durP1;ratioP1;P2;durP2;ratioP2
26502;SDS011;14177;51.520;6.764;2023-03-31T00:00:50;6.07;;;1.98;;
26502;SDS011;14177;51.520;6.764;2023-03-31T00:03:19;6.32;;;1.73;;
26502;SDS011;14177;51.520;6.764;2023-03-31T00:05:54;8.63;;;2.00;;
26502;SDS011;14177;51.520;6.764;2023-03-31T00:08:25;7.28;;;2.00;;
26502;SDS011;14177;51.520;6.764;2023-03-31T00:11:01;5.60;;;1.85;;
26502;SDS011;14177;51.520;6.764;2023-03-31T00:13:30;9.38;;;2.20;;
26502;SDS011;14177;51.520;6.764;2023-03-31T00:16:07;5.82;;;2.28;;
26502;SDS011;14177;51.520;6.764;2023-03-31T00:18:36;6.97;;;2.00;;
26502;SDS011;14177;51.520;6.764;2023-03-31T00:21:22;5.53;;;1.75;;
26502;SDS011;14177;51.520;6.764;2023-03-31T00:24:03;7.50;;;1.92;;
26502;SDS011;14177;51.520;6.764;2023-03-31T00:26:37;7.53;;;2.00;;
26502;SDS011;14177;51.520;6.764;2023-03-31T00:29:11;7.25;;;1.83;;
26502;SDS011;14177;51.520;6.764;2023-03-31T00:31:48;4.05;;;1.30;;
26502;SDS011;14177;51.520;6.764;2023-03-31T00:34:27;4.82;;;1.20;;
26502;SDS011;14177;51.520;6.764;2023-03-31T00:37:17;8.20;;;1.90;;
26502;SDS011;14177;51.520;6.764;2023-03-31T00:39:44;5.43;;;1.40;;
26502;SDS011;14177;51.520;6.764;2023-03-31T00:42:11;7.65;;;1.85;;
26502;SDS011;14177;51.520;6.764;2023-03-31T00:45:07;4.63;;;1.58;;
26502;SDS011;14177;51.520;6.764;2023-03-31T00:47:34;5.68;;;1.52;;
26502;SDS011;14177;51.520;6.764;2023-03-31T00:50:01;6.75;;;1.73;;
26502;SDS011;14177;51.520;6.764;2023-03-31T00:52:33;6.15;;;2.05;;
26502;SDS011;14177;51.520;6.764;2023-03-31T00:55:04;6.20;;;1.73;;
26502;SDS011;14177;51.520;6.764;2023-03-31T00:57:37;6.78;;;1.75;;
26502;SDS011;14177;51.520;6.764;2023-03-31T01:00:11;10.70;;;1.65;;
26502;SDS011;14177;51.520;6.764;2023-03-31T01:02:41;14.30;;;2.17;;
26502;SDS011;14177;51.520;6.764;2023-03-31T01:05:18;8.77;;;1.42;;
26502;SDS011;14177;51.520;6.764;2023-03-31T01:08:16;6.72;;;1.60;;
26502;SDS011;14177;51.520;6.764;2023-03-31T01:10:51;6.03;;;1.60;;
26502;SDS011;14177;51.520;6.764;2023-03-31T01:13:23;5.72;;;1.58;;
26502;SDS011;14177;51.520;6.764;2023-03-31T01:15:52;5.95;;;1.75;;
26502;SDS011;14177;51.520;6.764;2023-03-31T01:18:20;5.68;;;1.50;;
26502;SDS011;14177;51.520;6.764;2023-03-31T01:38:39;4.95;;;2.08;;
26502;SDS011;14177;51.520;6.764;2023-03-31T01:44:45;8.55;;;3.08;;
26502;SDS011;14177;51.520;6.764;2023-03-31T01:47:15;12.93;;;3.78;;
26502;SDS011;14177;51.520;6.764;2023-03-31T01:50:00;17.30;;;6.47;;
26502;SDS011;14177;51.520;6.764;2023-03-31T01:55:21;14.63;;;5.75;;
26502;SDS011;14177;51.520;6.764;2023-03-31T01:58:01;7.70;;;3.60;;
26502;SDS011;14177;51.520;6.764;2023-03-31T02:00:47;11.23;;;4.05;;
26502;SDS011;14177;51.520;6.764;2023-03-31T02:03:27;9.15;;;3.90;;
26502;SDS011;14177;51.520;6.764;2023-03-31T02:06:04;11.63;;;2.42;;
26502;SDS011;14177;51.520;6.764;2023-03-31T02:08:46;7.72;;;2.67;;
26502;SDS011;14177;51.520;6.764;2023-03-31T02:11:23;5.90;;;2.15;;
26502;SDS011;14177;51.520;6.764;2023-03-31T02:13:53;11.85;;;2.78;;
26502;SDS011;14177;51.520;6.764;2023-03-31T02:16:29;8.57;;;2.92;;
26502;SDS011;14177;51.520;6.764;2023-03-31T02:19:03;8.63;;;3.05;;
26502;SDS011;14177;51.520;6.764;2023-03-31T02:21:32;10.20;;;3.13;;
26502;SDS011;14177;51.520;6.764;2023-03-31T02:24:05;12.77;;;3.17;;
26502;SDS011;14177;51.520;6.764;2023-03-31T02:26:48;10.43;;;2.92;;
26502;SDS011;14177;51.520;6.764;2023-03-31T02:29:23;10.10;;;2.55;;
26502;SDS011;14177;51.520;6.764;2023-03-31T02:34:28;9.90;;;2.33;;
26502;SDS011;14177;51.520;6.764;2023-03-31T02:36:56;13.38;;;2.80;;
26502;SDS011;14177;51.520;6.764;2023-03-31T02:39:25;7.78;;;2.08;;
26502;SDS011;14177;51.520;6.764;2023-03-31T02:44:33;10.95;;;2.92;;
26502;SDS011;14177;51.520;6.764;2023-03-31T02:47:02;9.75;;;2.42;;
26502;SDS011;14177;51.520;6.764;2023-03-31T02:49:36;14.10;;;3.40;;
26502;SDS011;14177;51.520;6.764;2023-03-31T02:55:21;12.95;;;3.20;;
26502;SDS011;14177;51.520;6.764;2023-03-31T03:06:52;12.43;;;3.05;;
26502;SDS011;14177;51.520;6.764;2023-03-31T03:18:59;11.57;;;2.45;;
26502;SDS011;14177;51.520;6.764;2023-03-31T03:21:31;10.32;;;2.42;;
26502;SDS011;14177;51.520;6.764;2023-03-31T03:23:58;8.20;;;2.33;;
26502;SDS011;14177;51.520;6.764;2023-03-31T03:26:27;15.85;;;2.60;;
26502;SDS011;14177;51.520;6.764;2023-03-31T03:28:54;9.95;;;1.80;;
26502;SDS011;14177;51.520;6.764;2023-03-31T03:31:22;9.13;;;2.38;;
26502;SDS011;14177;51.520;6.764;2023-03-31T03:33:51;7.93;;;2.45;;
26502;SDS011;14177;51.520;6.764;2023-03-31T03:36:19;8.90;;;2.47;;
26502;SDS011;14177;51.520;6.764;2023-03-31T03:38:46;10.65;;;2.13;;
26502;SDS011;14177;51.520;6.764;2023-03-31T03:41:13;10.50;;;2.28;;
26502;SDS011;14177;51.520;6.764;2023-03-31T03:43:40;12.80;;;2.97;;
26502;SDS011;14177;51.520;6.764;2023-03-31T03:46:07;11.05;;;3.03;;
26502;SDS011;14177;51.520;6.764;2023-03-31T03:48:35;15.15;;;3.70;;
26502;SDS011;14177;51.520;6.764;2023-03-31T03:51:02;19.67;;;4.35;;
26502;SDS011;14177;51.520;6.764;2023-03-31T03:53:30;14.93;;;4.00;;
26502;SDS011;14177;51.520;6.764;2023-03-31T03:55:57;16.45;;;4.82;;
26502;SDS011;14177;51.520;6.764;2023-03-31T03:58:24;11.32;;;2.95;;
26502;SDS011;14177;51.520;6.764;2023-03-31T04:00:51;14.70;;;4.10;;
26502;SDS011;14177;51.520;6.764;2023-03-31T04:03:18;15.65;;;3.05;;
26502;SDS011;14177;51.520;6.764;2023-03-31T04:05:46;8.82;;;3.20;;
26502;SDS011;14177;51.520;6.764;2023-03-31T04:08:15;9.63;;;2.47;;
26502;SDS011;14177;51.520;6.764;2023-03-31T04:10:44;10.63;;;2.58;;
26502;SDS011;14177;51.520;6.764;2023-03-31T04:13:14;7.47;;;2.40;;
26502;SDS011;14177;51.520;6.764;2023-03-31T04:15:45;12.52;;;3.58;;
26502;SDS011;14177;51.520;6.764;2023-03-31T04:18:13;9.98;;;2.70;;
26502;SDS011;14177;51.520;6.764;2023-03-31T04:20:51;13.38;;;2.55;;
26502;SDS011;14177;51.520;6.764;2023-03-31T04:23:32;12.82;;;3.03;;
26502;SDS011;14177;51.520;6.764;2023-03-31T04:26:03;10.35;;;2.50;;
26502;SDS011;14177;51.520;6.764;2023-03-31T04:28:34;9.93;;;2.15;;
26502;SDS011;14177;51.520;6.764;2023-03-31T04:31:03;11.07;;;2.50;;
26502;SDS011;14177;51.520;6.764;2023-03-31T04:33:34;16.05;;;2.38;;
26502;SDS011;14177;51.520;6.764;2023-03-31T04:36:07;9.20;;;1.95;;
26502;SDS011;14177;51.520;6.764;2023-03-31T04:38:44;15.02;;;2.95;;
26502;SDS011;14177;51.520;6.764;2023-03-31T04:41:21;7.70;;;1.83;;
26502;SDS011;14177;51.520;6.764;2023-03-31T04:43:50;10.25;;;2.25;;
26502;SDS011;14177;51.520;6.764;2023-03-31T04:46:17;7.80;;;2.05;;
26502;SDS011;14177;51.520;6.764;2023-03-31T04:48:44;8.85;;;2.25;;
26502;SDS011;14177;51.520;6.764;2023-03-31T04:51:11;7.88;;;2.40;;
26502;SDS011;14177;51.520;6.764;2023-03-31T04:53:40;8.10;;;2.13;;
26502;SDS011;14177;51.520;6.764;2023-03-31T04:56:07;6.47;;;2.03;;
26502;SDS011;14177;51.520;6.764;2023-03-31T04:58:35;10.57;;;1.83;;
26502;SDS011;14177;51.520;6.764;2023-03-31T05:01:02;10.63;;;2.47;;
26502;SDS011;14177;51.520;6.764;2023-03-31T05:03:33;8.50;;;2.30;;
26502;SDS011;14177;51.520;6.764;2023-03-31T05:06:01;6.03;;;1.92;;
26502;SDS011;14177;51.520;6.764;2023-03-31T05:08:28;8.20;;;2.30;;
26502;SDS011;14177;51.520;6.764;2023-03-31T05:10:55;10.68;;;4.07;;
26502;SDS011;14177;51.520;6.764;2023-03-31T05:13:23;7.53;;;2.00;;
26502;SDS011;14177;51.520;6.764;2023-03-31T05:15:50;5.45;;;1.88;;
26502;SDS011;14177;51.520;6.764;2023-03-31T05:18:18;8.55;;;1.80;;
26502;SDS011;14177;51.520;6.764;2023-03-31T05:20:45;7.97;;;1.80;;
26502;SDS011;14177;51.520;6.764;2023-03-31T05:23:12;9.13;;;1.35;;
26502;SDS011;14177;51.520;6.764;2023-03-31T05:25:39;5.82;;;1.75;;
26502;SDS011;14177;51.520;6.764;2023-03-31T05:28:07;8.20;;;2.80;;
26502;SDS011;14177;51.520;6.764;2023-03-31T05:30:35;4.15;;;1.35;;
26502;SDS011;14177;51.520;6.764;2023-03-31T05:33:02;9.05;;;2.42;;
26502;SDS011;14177;51.520;6.764;2023-03-31T05:35:29;7.20;;;1.70;;
26502;SDS011;14177;51.520;6.764;2023-03-31T05:37:56;9.20;;;1.80;;
26502;SDS011;14177;51.520;6.764;2023-03-31T05:40:23;6.30;;;1.80;;
26502;SDS011;14177;51.520;6.764;2023-03-31T05:42:51;5.97;;;1.52;;
26502;SDS011;14177;51.520;6.764;2023-03-31T05:45:18;7.07;;;1.60;;
26502;SDS011;14177;51.520;6.764;2023-03-31T05:47:45;9.07;;;2.28;;
26502;SDS011;14177;51.520;6.764;2023-03-31T05:50:12;6.05;;;1.90;;
26502;SDS011;14177;51.520;6.764;2023-03-31T05:52:40;3.63;;;1.58;;
26502;SDS011;14177;51.520;6.764;2023-03-31T05:55:07;4.95;;;1.50;;
26502;SDS011;14177;51.520;6.764;2023-03-31T05:57:35;5.63;;;1.50;;
26502;SDS011;14177;51.520;6.764;2023-03-31T06:00:03;6.90;;;1.52;;
26502;SDS011;14177;51.520;6.764;2023-03-31T06:02:32;5.50;;;1.40;;
26502;SDS011;14177;51.520;6.764;2023-03-31T06:04:59;4.55;;;1.67;;
26502;SDS011;14177;51.520;6.764;2023-03-31T06:07:27;5.70;;;2.13;;
26502;SDS011;14177;51.520;6.764;2023-03-31T06:09:54;6.07;;;1.55;;
26502;SDS011;14177;51.520;6.764;2023-03-31T06:12:21;4.78;;;1.52;;
26502;SDS011;14177;51.520;6.764;2023-03-31T06:14:48;6.43;;;1.83;;
26502;SDS011;14177;51.520;6.764;2023-03-31T06:17:15;7.78;;;1.88;;
26502;SDS011;14177;51.520;6.764;2023-03-31T06:19:43;4.82;;;2.00;;
26502;SDS011;14177;51.520;6.764;2023-03-31T06:22:10;6.82;;;2.20;;
26502;SDS011;14177;51.520;6.764;2023-03-31T06:24:39;10.38;;;2.60;;
26502;SDS011;14177;51.520;6.764;2023-03-31T06:27:07;9.55;;;2.40;;
26502;SDS011;14177;51.520;6.764;2023-03-31T06:29:47;6.95;;;2.53;;
26502;SDS011;14177;51.520;6.764;2023-03-31T06:32:16;7.15;;;3.10;;
26502;SDS011;14177;51.520;6.764;2023-03-31T06:34:43;8.38;;;2.55;;
26502;SDS011;14177;51.520;6.764;2023-03-31T06:37:10;7.38;;;2.75;;
26502;SDS011;14177;51.520;6.764;2023-03-31T06:39:37;7.50;;;2.80;;
26502;SDS011;14177;51.520;6.764;2023-03-31T06:42:04;10.57;;;2.70;;
26502;SDS011;14177;51.520;6.764;2023-03-31T06:44:38;7.85;;;3.03;;
26502;SDS011;14177;51.520;6.764;2023-03-31T06:47:06;8.50;;;2.60;;
26502;SDS011;14177;51.520;6.764;2023-03-31T06:49:33;6.20;;;2.33;;
26502;SDS011;14177;51.520;6.764;2023-03-31T06:52:00;9.07;;;2.97;;
26502;SDS011;14177;51.520;6.764;2023-03-31T06:54:29;6.95;;;2.70;;
26502;SDS011;14177;51.520;6.764;2023-03-31T06:56:56;6.72;;;2.20;;
26502;SDS011;14177;51.520;6.764;2023-03-31T06:59:24;6.25;;;2.53;;
26502;SDS011;14177;51.520;6.764;2023-03-31T07:01:51;7.80;;;2.40;;
26502;SDS011;14177;51.520;6.764;2023-03-31T07:04:19;10.00;;;2.75;;
26502;SDS011;14177;51.520;6.764;2023-03-31T07:06:46;10.00;;;2.58;;
26502;SDS011;14177;51.520;6.764;2023-03-31T07:09:13;5.30;;;2.40;;
26502;SDS011;14177;51.520;6.764;2023-03-31T07:11:40;5.32;;;2.45;;
26502;SDS011;14177;51.520;6.764;2023-03-31T07:14:08;6.28;;;2.63;;
26502;SDS011;14177;51.520;6.764;2023-03-31T07:16:36;6.70;;;2.50;;
26502;SDS011;14177;51.520;6.764;2023-03-31T07:19:05;4.05;;;2.22;;
26502;SDS011;14177;51.520;6.764;2023-03-31T07:21:33;7.47;;;2.60;;
26502;SDS011;14177;51.520;6.764;2023-03-31T07:24:00;5.10;;;1.90;;
26502;SDS011;14177;51.520;6.764;2023-03-31T07:26:27;5.43;;;1.70;;
26502;SDS011;14177;51.520;6.764;2023-03-31T07:28:54;5.53;;;1.77;;
26502;SDS011;14177;51.520;6.764;2023-03-31T07:31:23;7.82;;;2.65;;
26502;SDS011;14177;51.520;6.764;2023-03-31T07:33:50;7.38;;;2.35;;
26502;SDS011;14177;51.520;6.764;2023-03-31T07:36:17;6.75;;;2.53;;
26502;SDS011;14177;51.520;6.764;2023-03-31T07:38:45;6.78;;;2.40;;
26502;SDS011;14177;51.520;6.764;2023-03-31T07:41:18;5.18;;;2.03;;
26502;SDS011;14177;51.520;6.764;2023-03-31T07:43:47;5.78;;;2.60;;
26502;SDS011;14177;51.520;6.764;2023-03-31T07:46:17;10.88;;;3.20;;
26502;SDS011;14177;51.520;6.764;2023-03-31T07:48:45;7.65;;;3.15;;
26502;SDS011;14177;51.520;6.764;2023-03-31T07:51:14;8.43;;;2.88;;
26502;SDS011;14177;51.520;6.764;2023-03-31T07:53:44;10.13;;;2.15;;
26502;SDS011;14177;51.520;6.764;2023-03-31T07:56:12;6.93;;;2.50;;
26502;SDS011;14177;51.520;6.764;2023-03-31T07:58:39;9.45;;;2.83;;
26502;SDS011;14177;51.520;6.764;2023-03-31T08:01:06;9.48;;;2.67;;
26502;SDS011;14177;51.520;6.764;2023-03-31T08:03:33;6.35;;;2.22;;
26502;SDS011;14177;51.520;6.764;2023-03-31T08:06:01;7.25;;;2.53;;
26502;SDS011;14177;51.520;6.764;2023-03-31T08:08:28;12.10;;;3.17;;
26502;SDS011;14177;51.520;6.764;2023-03-31T08:10:55;10.32;;;3.15;;
26502;SDS011;14177;51.520;6.764;2023-03-31T08:13:22;9.25;;;3.25;;
26502;SDS011;14177;51.520;6.764;2023-03-31T08:15:49;6.78;;;2.60;;
26502;SDS011;14177;51.520;6.764;2023-03-31T08:18:17;13.30;;;3.60;;
26502;SDS011;14177;51.520;6.764;2023-03-31T08:20:44;11.63;;;3.50;;
26502;SDS011;14177;51.520;6.764;2023-03-31T08:23:17;12.85;;;3.13;;
26502;SDS011;14177;51.520;6.764;2023-03-31T08:25:44;11.65;;;3.20;;
26502;SDS011;14177;51.520;6.764;2023-03-31T08:28:12;14.77;;;3.80;;
26502;SDS011;14177;51.520;6.764;2023-03-31T08:30:40;9.45;;;3.40;;
26502;SDS011;14177;51.520;6.764;2023-03-31T08:33:07;10.48;;;3.50;;
26502;SDS011;14177;51.520;6.764;2023-03-31T08:35:37;10.60;;;3.60;;
26502;SDS011;14177;51.520;6.764;2023-03-31T08:38:04;14.05;;;2.92;;
26502;SDS011;14177;51.520;6.764;2023-03-31T08:40:31;12.45;;;3.67;;
26502;SDS011;14177;51.520;6.764;2023-03-31T08:43:07;7.95;;;2.80;;
26502;SDS011;14177;51.520;6.764;2023-03-31T08:45:48;7.68;;;2.30;;
26502;SDS011;14177;51.520;6.764;2023-03-31T08:48:29;6.82;;;2.40;;
26502;SDS011;14177;51.520;6.764;2023-03-31T08:51:05;8.90;;;2.28;;
26502;SDS011;14177;51.520;6.764;2023-03-31T08:54:05;6.65;;;1.92;;
26502;SDS011;14177;51.520;6.764;2023-03-31T08:56:43;10.88;;;2.28;;
26502;SDS011;14177;51.520;6.764;2023-03-31T09:05:34;9.07;;;2.63;;
26502;SDS011;14177;51.520;6.764;2023-03-31T09:08:38;13.95;;;3.22;;
26502;SDS011;14177;51.520;6.764;2023-03-31T09:11:09;8.13;;;3.17;;
26502;SDS011;14177;51.520;6.764;2023-03-31T09:20:18;9.45;;;3.22;;
26502;SDS011;14177;51.520;6.764;2023-03-31T09:23:01;12.38;;;3.72;;
26502;SDS011;14177;51.520;6.764;2023-03-31T09:25:47;12.52;;;3.40;;
26502;SDS011;14177;51.520;6.764;2023-03-31T09:28:28;12.15;;;3.38;;
26502;SDS011;14177;51.520;6.764;2023-03-31T09:31:15;15.57;;;3.90;;
26502;SDS011;14177;51.520;6.764;2023-03-31T09:33:46;12.60;;;4.13;;
26502;SDS011;14177;51.520;6.764;2023-03-31T09:36:18;17.58;;;3.55;;
26502;SDS011;14177;51.520;6.764;2023-03-31T09:38:50;15.18;;;3.25;;
26502;SDS011;14177;51.520;6.764;2023-03-31T09:41:20;7.82;;;2.70;;
26502;SDS011;14177;51.520;6.764;2023-03-31T09:43:47;10.18;;;2.72;;
26502;SDS011;14177;51.520;6.764;2023-03-31T09:46:30;11.50;;;2.92;;
26502;SDS011;14177;51.520;6.764;2023-03-31T09:51:36;9.50;;;2.30;;
26502;SDS011;14177;51.520;6.764;2023-03-31T09:54:24;13.30;;;2.92;;
26502;SDS011;14177;51.520;6.764;2023-03-31T09:57:00;11.35;;;2.90;;
26502;SDS011;14177;51.520;6.764;2023-03-31T09:59:37;11.52;;;3.50;;
26502;SDS011;14177;51.520;6.764;2023-03-31T10:05:01;10.15;;;2.47;;
26502;SDS011;14177;51.520;6.764;2023-03-31T10:07:30;11.55;;;2.50;;
26502;SDS011;14177;51.520;6.764;2023-03-31T10:09:59;12.60;;;3.42;;
26502;SDS011;14177;51.520;6.764;2023-03-31T10:12:28;12.35;;;2.50;;
26502;SDS011;14177;51.520;6.764;2023-03-31T10:15:02;9.40;;;2.28;;
26502;SDS011;14177;51.520;6.764;2023-03-31T10:17:44;10.55;;;2.92;;
26502;SDS011;14177;51.520;6.764;2023-03-31T10:20:30;14.73;;;4.07;;
26502;SDS011;14177;51.520;6.764;2023-03-31T10:23:18;20.60;;;5.50;;
26502;SDS011;14177;51.520;6.764;2023-03-31T10:26:00;12.98;;;3.25;;
26502;SDS011;14177;51.520;6.764;2023-03-31T10:28:31;11.77;;;3.05;;
26502;SDS011;14177;51.520;6.764;2023-03-31T10:31:02;13.48;;;2.65;;
26502;SDS011;14177;51.520;6.764;2023-03-31T10:33:30;13.38;;;2.60;;
26502;SDS011;14177;51.520;6.764;2023-03-31T10:36:07;11.38;;;2.85;;
26502;SDS011;14177;51.520;6.764;2023-03-31T10:38:44;10.55;;;2.50;;
26502;SDS011;14177;51.520;6.764;2023-03-31T10:41:17;10.52;;;2.58;;
26502;SDS011;14177;51.520;6.764;2023-03-31T10:43:51;15.35;;;2.50;;
26502;SDS011;14177;51.520;6.764;2023-03-31T10:46:45;19.02;;;3.60;;
26502;SDS011;14177;51.520;6.764;2023-03-31T10:51:55;15.93;;;3.30;;
26502;SDS011;14177;51.520;6.764;2023-03-31T10:54:32;17.55;;;3.15;;
26502;SDS011;14177;51.520;6.764;2023-03-31T10:57:01;13.32;;;3.03;;
26502;SDS011;14177;51.520;6.764;2023-03-31T11:08:47;9.05;;;1.73;;
26502;SDS011;14177;51.520;6.764;2023-03-31T11:14:50;11.13;;;2.13;;
26502;SDS011;14177;51.520;6.764;2023-03-31T11:25:58;13.23;;;2.83;;
26502;SDS011;14177;51.520;6.764;2023-03-31T11:43:28;6.30;;;1.75;;
26502;SDS011;14177;51.520;6.764;2023-03-31T11:48:53;5.78;;;1.83;;
26502;SDS011;14177;51.520;6.764;2023-03-31T11:51:43;5.10;;;1.60;;
26502;SDS011;14177;51.520;6.764;2023-03-31T11:54:36;7.40;;;2.05;;
26502;SDS011;14177;51.520;6.764;2023-03-31T11:57:27;8.50;;;1.77;;
26502;SDS011;14177;51.520;6.764;2023-03-31T12:00:08;3.78;;;1.13;;
26502;SDS011;14177;51.520;6.764;2023-03-31T12:05:40;7.18;;;1.75;;
26502;SDS011;14177;51.520;6.764;2023-03-31T12:10:57;8.45;;;1.70;;
26502;SDS011;14177;51.520;6.764;2023-03-31T12:16:22;9.35;;;1.80;;
26502;SDS011;14177;51.520;6.764;2023-03-31T12:19:53;7.38;;;1.67;;
26502;SDS011;14177;51.520;6.764;2023-03-31T12:22:33;8.02;;;1.70;;
26502;SDS011;14177;51.520;6.764;2023-03-31T12:25:11;11.57;;;3.25;;
26502;SDS011;14177;51.520;6.764;2023-03-31T12:27:52;4.90;;;1.40;;
26502;SDS011;14177;51.520;6.764;2023-03-31T12:30:29;8.43;;;3.03;;
26502;SDS011;14177;51.520;6.764;2023-03-31T12:33:39;6.63;;;1.48;;
26502;SDS011;14177;51.520;6.764;2023-03-31T12:59:33;9.57;;;1.98;;
26502;SDS011;14177;51.520;6.764;2023-03-31T13:04:42;13.20;;;3.35;;
26502;SDS011;14177;51.520;6.764;2023-03-31T13:07:33;11.63;;;4.20;;
26502;SDS011;14177;51.520;6.764;2023-03-31T13:13:00;11.73;;;3.08;;
26502;SDS011;14177;51.520;6.764;2023-03-31T13:15:39;14.75;;;3.35;;
26502;SDS011;14177;51.520;6.764;2023-03-31T13:18:20;12.27;;;3.42;;
26502;SDS011;14177;51.520;6.764;2023-03-31T13:21:04;15.93;;;3.47;;
26502;SDS011;14177;51.520;6.764;2023-03-31T13:23:33;11.45;;;2.70;;
26502;SDS011;14177;51.520;6.764;2023-03-31T13:26:02;11.38;;;1.67;;
26502;SDS011;14177;51.520;6.764;2023-03-31T13:36:18;13.70;;;3.55;;
26502;SDS011;14177;51.520;6.764;2023-03-31T13:39:01;7.20;;;2.50;;
26502;SDS011;14177;51.520;6.764;2023-03-31T13:42:31;9.13;;;1.90;;
26502;SDS011;14177;51.520;6.764;2023-03-31T13:48:26;7.93;;;1.73;;
26502;SDS011;14177;51.520;6.764;2023-03-31T14:04:11;5.43;;;1.92;;
26502;SDS011;14177;51.520;6.764;2023-03-31T14:07:11;7.32;;;1.45;;
26502;SDS011;14177;51.520;6.764;2023-03-31T14:09:45;6.10;;;1.88;;
26502;SDS011;14177;51.520;6.764;2023-03-31T14:12:19;7.40;;;2.00;;
26502;SDS011;14177;51.520;6.764;2023-03-31T14:15:03;7.82;;;2.17;;
26502;SDS011;14177;51.520;6.764;2023-03-31T14:17:36;15.63;;;3.35;;
26502;SDS011;14177;51.520;6.764;2023-03-31T14:38:19;5.82;;;1.35;;
26502;SDS011;14177;51.520;6.764;2023-03-31T14:40:49;8.65;;;2.03;;
26502;SDS011;14177;51.520;6.764;2023-03-31T14:43:22;9.20;;;1.65;;
26502;SDS011;14177;51.520;6.764;2023-03-31T14:45:56;9.15;;;1.60;;
26502;SDS011;14177;51.520;6.764;2023-03-31T14:48:31;5.28;;;1.55;;
26502;SDS011;14177;51.520;6.764;2023-03-31T14:51:26;7.28;;;1.13;;
26502;SDS011;14177;51.520;6.764;2023-03-31T14:53:56;7.63;;;1.40;;
26502;SDS011;14177;51.520;6.764;2023-03-31T14:56:32;18.38;;;5.68;;
26502;SDS011;14177;51.520;6.764;2023-03-31T14:59:04;16.40;;;5.05;;
26502;SDS011;14177;51.520;6.764;2023-03-31T15:01:34;35.33;;;16.58;;
26502;SDS011;14177;51.520;6.764;2023-03-31T15:04:07;55.17;;;27.77;;
26502;SDS011;14177;51.520;6.764;2023-03-31T15:06:39;54.05;;;30.48;;
26502;SDS011;14177;51.520;6.764;2023-03-31T15:09:12;19.83;;;7.88;;
26502;SDS011;14177;51.520;6.764;2023-03-31T15:11:57;6.88;;;2.30;;
26502;SDS011;14177;51.520;6.764;2023-03-31T15:14:29;8.90;;;2.58;;
26502;SDS011;14177;51.520;6.764;2023-03-31T15:17:01;5.50;;;1.88;;
26502;SDS011;14177;51.520;6.764;2023-03-31T15:19:30;8.90;;;2.83;;
26502;SDS011;14177;51.520;6.764;2023-03-31T15:22:07;6.53;;;1.52;;
26502;SDS011;14177;51.520;6.764;2023-03-31T15:24:41;4.70;;;1.10;;
26502;SDS011;14177;51.520;6.764;2023-03-31T15:27:13;5.80;;;1.90;;
26502;SDS011;14177;51.520;6.764;2023-03-31T15:30:04;7.57;;;1.70;;
26502;SDS011;14177;51.520;6.764;2023-03-31T15:32:38;5.80;;;1.42;;
26502;SDS011;14177;51.520;6.764;2023-03-31T15:35:06;6.90;;;1.50;;
26502;SDS011;14177;51.520;6.764;2023-03-31T15:37:53;5.97;;;1.75;;
26502;SDS011;14177;51.520;6.764;2023-03-31T15:40:30;11.63;;;4.70;;
26502;SDS011;14177;51.520;6.764;2023-03-31T15:49:10;13.80;;;7.03;;
26502;SDS011;14177;51.520;6.764;2023-03-31T15:51:49;7.90;;;3.47;;
26502;SDS011;14177;51.520;6.764;2023-03-31T15:57:07;11.98;;;4.50;;
26502;SDS011;14177;51.520;6.764;2023-03-31T15:59:44;4.75;;;1.60;;
26502;SDS011;14177;51.520;6.764;2023-03-31T16:02:22;4.63;;;0.82;;
26502;SDS011;14177;51.520;6.764;2023-03-31T16:05:04;2.47;;;0.90;;
26502;SDS011;14177;51.520;6.764;2023-03-31T16:07:39;9.15;;;2.60;;
26502;SDS011;14177;51.520;6.764;2023-03-31T16:10:14;4.15;;;1.17;;
26502;SDS011;14177;51.520;6.764;2023-03-31T16:12:53;6.47;;;1.60;;
26502;SDS011;14177;51.520;6.764;2023-03-31T16:15:32;4.60;;;1.67;;
26502;SDS011;14177;51.520;6.764;2023-03-31T16:18:16;3.78;;;0.80;;
26502;SDS011;14177;51.520;6.764;2023-03-31T16:20:55;7.88;;;3.10;;
26502;SDS011;14177;51.520;6.764;2023-03-31T16:23:28;9.52;;;3.15;;
26502;SDS011;14177;51.520;6.764;2023-03-31T16:25:59;26.10;;;14.43;;
26502;SDS011;14177;51.520;6.764;2023-03-31T16:28:29;8.60;;;3.70;;
26502;SDS011;14177;51.520;6.764;2023-03-31T16:31:00;15.45;;;4.07;;
26502;SDS011;14177;51.520;6.764;2023-03-31T16:33:28;18.73;;;8.77;;
26502;SDS011;14177;51.520;6.764;2023-03-31T16:35:57;24.70;;;9.88;;
26502;SDS011;14177;51.520;6.764;2023-03-31T16:38:25;14.20;;;4.30;;
26502;SDS011;14177;51.520;6.764;2023-03-31T16:40:55;19.08;;;7.00;;
26502;SDS011;14177;51.520;6.764;2023-03-31T16:43:24;8.40;;;3.70;;
26502;SDS011;14177;51.520;6.764;2023-03-31T16:45:57;13.40;;;5.55;;
26502;SDS011;14177;51.520;6.764;2023-03-31T16:48:27;8.05;;;2.50;;
26502;SDS011;14177;51.520;6.764;2023-03-31T16:50:56;8.60;;;2.67;;
26502;SDS011;14177;51.520;6.764;2023-03-31T16:53:26;4.35;;;2.00;;
26502;SDS011;14177;51.520;6.764;2023-03-31T16:55:56;5.43;;;1.60;;
26502;SDS011;14177;51.520;6.764;2023-03-31T16:58:24;3.90;;;1.15;;
26502;SDS011;14177;51.520;6.764;2023-03-31T17:00:53;6.07;;;1.35;;
26502;SDS011;14177;51.520;6.764;2023-03-31T17:03:22;5.07;;;1.40;;
26502;SDS011;14177;51.520;6.764;2023-03-31T17:05:51;3.67;;;1.02;;
26502;SDS011;14177;51.520;6.764;2023-03-31T17:08:24;8.93;;;1.70;;
26502;SDS011;14177;51.520;6.764;2023-03-31T17:10:54;5.28;;;1.83;;
26502;SDS011;14177;51.520;6.764;2023-03-31T17:13:27;6.50;;;2.13;;
26502;SDS011;14177;51.520;6.764;2023-03-31T17:15:55;8.73;;;2.25;;
26502;SDS011;14177;51.520;6.764;2023-03-31T17:18:38;2.40;;;1.40;;
26502;SDS011;14177;51.520;6.764;2023-03-31T17:21:09;5.05;;;1.80;;
26502;SDS011;14177;51.520;6.764;2023-03-31T17:23:39;8.00;;;1.90;;
26502;SDS011;14177;51.520;6.764;2023-03-31T17:26:07;4.65;;;1.45;;
26502;SDS011;14177;51.520;6.764;2023-03-31T17:28:38;5.07;;;1.38;;
26502;SDS011;14177;51.520;6.764;2023-03-31T17:31:14;6.43;;;1.88;;
26502;SDS011;14177;51.520;6.764;2023-03-31T17:33:51;7.28;;;1.90;;
26502;SDS011;14177;51.520;6.764;2023-03-31T17:36:18;7.90;;;2.13;;
26502;SDS011;14177;51.520;6.764;2023-03-31T17:38:45;7.97;;;2.72;;
26502;SDS011;14177;51.520;6.764;2023-03-31T17:41:13;10.50;;;2.55;;
26502;SDS011;14177;51.520;6.764;2023-03-31T17:43:43;9.98;;;3.13;;
26502;SDS011;14177;51.520;6.764;2023-03-31T17:46:12;8.70;;;3.72;;
26502;SDS011;14177;51.520;6.764;2023-03-31T17:48:40;8.77;;;3.70;;
26502;SDS011;14177;51.520;6.764;2023-03-31T17:51:10;9.80;;;3.30;;
26502;SDS011;14177;51.520;6.764;2023-03-31T17:53:42;9.18;;;3.92;;
26502;SDS011;14177;51.520;6.764;2023-03-31T17:56:11;8.13;;;3.28;;
26502;SDS011;14177;51.520;6.764;2023-03-31T17:58:40;8.20;;;3.55;;
26502;SDS011;14177;51.520;6.764;2023-03-31T18:01:09;5.80;;;2.63;;
26502;SDS011;14177;51.520;6.764;2023-03-31T18:03:37;7.93;;;2.65;;
26502;SDS011;14177;51.520;6.764;2023-03-31T18:06:09;5.43;;;2.45;;
26502;SDS011;14177;51.520;6.764;2023-03-31T18:08:39;7.13;;;1.73;;
26502;SDS011;14177;51.520;6.764;2023-03-31T18:11:07;10.07;;;3.15;;
26502;SDS011;14177;51.520;6.764;2023-03-31T18:13:36;7.75;;;3.22;;
26502;SDS011;14177;51.520;6.764;2023-03-31T18:16:03;8.88;;;3.60;;
26502;SDS011;14177;51.520;6.764;2023-03-31T18:18:41;9.05;;;3.17;;
26502;SDS011;14177;51.520;6.764;2023-03-31T18:25:14;5.60;;;2.15;;
26502;SDS011;14177;51.520;6.764;2023-03-31T18:28:10;4.80;;;1.70;;
26502;SDS011;14177;51.520;6.764;2023-03-31T18:35:13;6.63;;;2.55;;
26502;SDS011;14177;51.520;6.764;2023-03-31T18:38:26;5.68;;;1.77;;
26502;SDS011;14177;51.520;6.764;2023-03-31T18:41:41;6.15;;;2.28;;
26502;SDS011;14177;51.520;6.764;2023-03-31T18:44:40;11.38;;;2.67;;
26502;SDS011;14177;51.520;6.764;2023-03-31T18:47:18;9.43;;;2.50;;